sensor_id;sensor_type;location;lat;lon;timestamp;P1;durP1;ratioP1;P2;durP2;ratioP2
49582;SDS011;36329;48.816;44.624;2023-03-23T00:02:29;9.6;;;6.1;;
49582;SDS011;36329;48.816;44.624;2023-03-23T00:05:32;9.7;;;5.7;;
49582;SDS011;36329;48.816;44.624;2023-03-23T00:08:35;12.1;;;5.7;;
49582;SDS011;36329;48.816;44.624;2023-03-23T00:11:39;8.9;;;6;;
49582;SDS011;36329;48.816;44.624;2023-03-23T00:14:41;9.1;;;5.9;;
49582;SDS011;36329;48.816;44.624;2023-03-23T00:17:43;10.1;;;5.9;;
49582;SDS011;36329;48.816;44.624;2023-03-23T00:20:45;8.6;;;5.2;;
49582;SDS011;36329;48.816;44.624;2023-03-23T00:23:47;10.9;;;5.1;;
49582;SDS011;36329;48.816;44.624;2023-03-23T00:26:49;10.1;;;5;;
49582;SDS011;36329;48.816;44.624;2023-03-23T00:29:51;9.8;;;5;;
49582;SDS011;36329;48.816;44.624;2023-03-23T00:32:53;8.6;;;4.9;;
49582;SDS011;36329;48.816;44.624;2023-03-23T00:35:55;9.4;;;4.9;;
49582;SDS011;36329;48.816;44.624;2023-03-23T00:38:57;7.9;;;4.7;;
49582;SDS011;36329;48.816;44.624;2023-03-23T00:42:00;6.9;;;4.7;;
49582;SDS011;36329;48.816;44.624;2023-03-23T00:45:02;7.3;;;4.5;;
49582;SDS011;36329;48.816;44.624;2023-03-23T00:48:05;8.6;;;4.8;;
49582;SDS011;36329;48.816;44.624;2023-03-23T00:51:07;9.1;;;4.7;;
49582;SDS011;36329;48.816;44.624;2023-03-23T00:54:10;8.8;;;4.9;;
49582;SDS011;36329;48.816;44.624;2023-03-23T00:57:12;9.2;;;4.8;;
49582;SDS011;36329;48.816;44.624;2023-03-23T01:00:15;11.5;;;4.9;;
49582;SDS011;36329;48.816;44.624;2023-03-23T01:03:17;8.4;;;4.9;;
49582;SDS011;36329;48.816;44.624;2023-03-23T01:06:19;8.6;;;4.9;;
49582;SDS011;36329;48.816;44.624;2023-03-23T01:09:21;9;;;4.6;;
49582;SDS011;36329;48.816;44.624;2023-03-23T01:12:23;9.6;;;5.3;;
49582;SDS011;36329;48.816;44.624;2023-03-23T01:15:25;7.3;;;4.2;;
49582;SDS011;36329;48.816;44.624;2023-03-23T01:18:27;12.5;;;5.2;;
49582;SDS011;36329;48.816;44.624;2023-03-23T01:21:29;9.3;;;5;;
49582;SDS011;36329;48.816;44.624;2023-03-23T01:24:32;7.8;;;5;;
49582;SDS011;36329;48.816;44.624;2023-03-23T01:27:35;9.1;;;5.3;;
49582;SDS011;36329;48.816;44.624;2023-03-23T01:30:37;7.1;;;5;;
49582;SDS011;36329;48.816;44.624;2023-03-23T01:33:40;7.7;;;5.1;;
49582;SDS011;36329;48.816;44.624;2023-03-23T01:36:43;9.2;;;5.4;;
49582;SDS011;36329;48.816;44.624;2023-03-23T01:39:45;7.3;;;5.2;;
49582;SDS011;36329;48.816;44.624;2023-03-23T01:42:47;8.8;;;5.1;;
49582;SDS011;36329;48.816;44.624;2023-03-23T01:45:49;8.1;;;5.2;;
49582;SDS011;36329;48.816;44.624;2023-03-23T01:48:51;9.8;;;5.2;;
49582;SDS011;36329;48.816;44.624;2023-03-23T01:51:56;9;;;5.2;;
49582;SDS011;36329;48.816;44.624;2023-03-23T01:55:02;9.6;;;5.1;;
49582;SDS011;36329;48.816;44.624;2023-03-23T01:58:06;8.6;;;5.2;;
49582;SDS011;36329;48.816;44.624;2023-03-23T02:01:10;9.6;;;5.4;;
49582;SDS011;36329;48.816;44.624;2023-03-23T02:04:15;10.4;;;5.3;;
49582;SDS011;36329;48.816;44.624;2023-03-23T02:07:19;8.1;;;5.1;;
49582;SDS011;36329;48.816;44.624;2023-03-23T02:10:22;9.8;;;5.3;;
49582;SDS011;36329;48.816;44.624;2023-03-23T02:13:24;8.9;;;5.2;;
49582;SDS011;36329;48.816;44.624;2023-03-23T02:16:31;10;;;5.1;;
49582;SDS011;36329;48.816;44.624;2023-03-23T02:19:41;9.1;;;5.8;;
49582;SDS011;36329;48.816;44.624;2023-03-23T02:23:06;9.5;;;5.9;;
49582;SDS011;36329;48.816;44.624;2023-03-23T02:26:20;13;;;6;;
49582;SDS011;36329;48.816;44.624;2023-03-23T02:29:40;9.4;;;5.6;;
49582;SDS011;36329;48.816;44.624;2023-03-23T02:36:20;10.2;;;5.9;;
49582;SDS011;36329;48.816;44.624;2023-03-23T02:39:25;10.9;;;6.4;;
49582;SDS011;36329;48.816;44.624;2023-03-23T02:42:35;8.9;;;6.2;;
49582;SDS011;36329;48.816;44.624;2023-03-23T02:45:41;10.2;;;5.7;;
49582;SDS011;36329;48.816;44.624;2023-03-23T02:48:45;12.3;;;6.7;;
49582;SDS011;36329;48.816;44.624;2023-03-23T02:51:49;12.2;;;6.8;;
49582;SDS011;36329;48.816;44.624;2023-03-23T02:54:53;14.3;;;6.6;;
49582;SDS011;36329;48.816;44.624;2023-03-23T02:57:58;11;;;6.9;;
49582;SDS011;36329;48.816;44.624;2023-03-23T03:04:19;11.8;;;6.4;;
49582;SDS011;36329;48.816;44.624;2023-03-23T03:07:28;11;;;6.6;;
49582;SDS011;36329;48.816;44.624;2023-03-23T03:10:36;12.9;;;6.6;;
49582;SDS011;36329;48.816;44.624;2023-03-23T03:13:47;10.4;;;6.2;;
49582;SDS011;36329;48.816;44.624;2023-03-23T03:16:56;11.6;;;6.8;;
49582;SDS011;36329;48.816;44.624;2023-03-23T03:20:03;10;;;6.4;;
49582;SDS011;36329;48.816;44.624;2023-03-23T03:23:08;10.3;;;6.1;;
49582;SDS011;36329;48.816;44.624;2023-03-23T03:26:12;13.1;;;6.8;;
49582;SDS011;36329;48.816;44.624;2023-03-23T03:29:15;11.5;;;6.6;;
49582;SDS011;36329;48.816;44.624;2023-03-23T03:32:20;13.6;;;6.5;;
49582;SDS011;36329;48.816;44.624;2023-03-23T03:35:26;11.6;;;6.4;;
49582;SDS011;36329;48.816;44.624;2023-03-23T03:38:29;11.7;;;6.8;;
49582;SDS011;36329;48.816;44.624;2023-03-23T03:41:31;13.4;;;6.6;;
49582;SDS011;36329;48.816;44.624;2023-03-23T03:44:33;11.6;;;6.5;;
49582;SDS011;36329;48.816;44.624;2023-03-23T03:47:35;11.9;;;6.3;;
49582;SDS011;36329;48.816;44.624;2023-03-23T03:50:37;13.6;;;6.7;;
49582;SDS011;36329;48.816;44.624;2023-03-23T03:53:40;15.1;;;6.6;;
49582;SDS011;36329;48.816;44.624;2023-03-23T03:56:42;13.1;;;6.1;;
49582;SDS011;36329;48.816;44.624;2023-03-23T03:59:44;11.1;;;6.7;;
49582;SDS011;36329;48.816;44.624;2023-03-23T04:02:47;11.2;;;6.1;;
49582;SDS011;36329;48.816;44.624;2023-03-23T04:05:50;13.3;;;6.8;;
49582;SDS011;36329;48.816;44.624;2023-03-23T04:08:52;14.6;;;6.9;;
49582;SDS011;36329;48.816;44.624;2023-03-23T04:11:53;14.9;;;6.8;;
49582;SDS011;36329;48.816;44.624;2023-03-23T04:14:55;12.7;;;6.6;;
49582;SDS011;36329;48.816;44.624;2023-03-23T04:17:57;12;;;6.2;;
49582;SDS011;36329;48.816;44.624;2023-03-23T04:21:00;13.5;;;6.3;;
49582;SDS011;36329;48.816;44.624;2023-03-23T04:24:03;9.8;;;6.3;;
49582;SDS011;36329;48.816;44.624;2023-03-23T04:27:05;10.6;;;6.6;;
49582;SDS011;36329;48.816;44.624;2023-03-23T04:30:07;14.6;;;7.3;;
49582;SDS011;36329;48.816;44.624;2023-03-23T04:33:10;13.2;;;7.3;;
49582;SDS011;36329;48.816;44.624;2023-03-23T04:36:12;16.2;;;6.6;;
49582;SDS011;36329;48.816;44.624;2023-03-23T04:39:14;11.4;;;6.7;;
49582;SDS011;36329;48.816;44.624;2023-03-23T04:42:16;12.7;;;6.9;;
49582;SDS011;36329;48.816;44.624;2023-03-23T04:45:19;15.6;;;7;;
49582;SDS011;36329;48.816;44.624;2023-03-23T04:48:22;20.8;;;6.4;;
49582;SDS011;36329;48.816;44.624;2023-03-23T04:51:25;14.2;;;5.9;;
49582;SDS011;36329;48.816;44.624;2023-03-23T04:54:26;17;;;6.6;;
49582;SDS011;36329;48.816;44.624;2023-03-23T04:57:28;14.6;;;6.5;;
49582;SDS011;36329;48.816;44.624;2023-03-23T05:00:31;16.2;;;7.1;;
49582;SDS011;36329;48.816;44.624;2023-03-23T05:03:33;12.9;;;6.5;;
49582;SDS011;36329;48.816;44.624;2023-03-23T05:06:36;17.7;;;7.1;;
49582;SDS011;36329;48.816;44.624;2023-03-23T05:09:38;13.4;;;6.9;;
49582;SDS011;36329;48.816;44.624;2023-03-23T05:12:40;13.4;;;6.7;;
49582;SDS011;36329;48.816;44.624;2023-03-23T05:15:43;16.3;;;7.3;;
49582;SDS011;36329;48.816;44.624;2023-03-23T05:18:45;16.4;;;7.1;;
49582;SDS011;36329;48.816;44.624;2023-03-23T05:21:48;17.1;;;7.4;;
49582;SDS011;36329;48.816;44.624;2023-03-23T05:24:50;12.2;;;6.5;;
49582;SDS011;36329;48.816;44.624;2023-03-23T05:27:52;13.7;;;6.4;;
49582;SDS011;36329;48.816;44.624;2023-03-23T05:30:55;13.8;;;6.8;;
49582;SDS011;36329;48.816;44.624;2023-03-23T05:33:58;15;;;6.7;;
49582;SDS011;36329;48.816;44.624;2023-03-23T05:37:01;12.4;;;6.4;;
49582;SDS011;36329;48.816;44.624;2023-03-23T05:40:04;13.6;;;6.7;;
49582;SDS011;36329;48.816;44.624;2023-03-23T05:43:07;13.7;;;7.4;;
49582;SDS011;36329;48.816;44.624;2023-03-23T05:46:09;12.8;;;7.2;;
49582;SDS011;36329;48.816;44.624;2023-03-23T05:49:11;15.4;;;7.5;;
49582;SDS011;36329;48.816;44.624;2023-03-23T05:52:13;15.4;;;7.6;;
49582;SDS011;36329;48.816;44.624;2023-03-23T05:55:15;16.3;;;8.1;;
49582;SDS011;36329;48.816;44.624;2023-03-23T05:58:20;15.6;;;7.9;;
49582;SDS011;36329;48.816;44.624;2023-03-23T06:01:22;17.8;;;7.8;;
49582;SDS011;36329;48.816;44.624;2023-03-23T06:04:24;20.7;;;8;;
49582;SDS011;36329;48.816;44.624;2023-03-23T06:07:29;17.3;;;7.8;;
49582;SDS011;36329;48.816;44.624;2023-03-23T06:10:31;21.9;;;8.1;;
49582;SDS011;36329;48.816;44.624;2023-03-23T06:13:33;17.3;;;7.8;;
49582;SDS011;36329;48.816;44.624;2023-03-23T06:16:35;18.7;;;8.1;;
49582;SDS011;36329;48.816;44.624;2023-03-23T06:19:37;15;;;8.1;;
49582;SDS011;36329;48.816;44.624;2023-03-23T06:22:39;18.2;;;8.5;;
49582;SDS011;36329;48.816;44.624;2023-03-23T06:25:41;18.2;;;8.3;;
49582;SDS011;36329;48.816;44.624;2023-03-23T06:28:44;17.5;;;8.6;;
49582;SDS011;36329;48.816;44.624;2023-03-23T06:31:47;18.1;;;8.7;;
49582;SDS011;36329;48.816;44.624;2023-03-23T06:34:51;21.3;;;9.2;;
49582;SDS011;36329;48.816;44.624;2023-03-23T06:37:53;14.8;;;8.7;;
49582;SDS011;36329;48.816;44.624;2023-03-23T06:40:55;19.4;;;9.4;;
49582;SDS011;36329;48.816;44.624;2023-03-23T06:43:57;23;;;8.9;;
49582;SDS011;36329;48.816;44.624;2023-03-23T06:47:00;24.2;;;10;;
49582;SDS011;36329;48.816;44.624;2023-03-23T06:50:02;23.5;;;9.5;;
49582;SDS011;36329;48.816;44.624;2023-03-23T06:53:05;17.7;;;9.5;;
49582;SDS011;36329;48.816;44.624;2023-03-23T06:56:07;17.3;;;9.1;;
49582;SDS011;36329;48.816;44.624;2023-03-23T06:59:09;16.4;;;8.2;;
49582;SDS011;36329;48.816;44.624;2023-03-23T07:02:12;19.8;;;8.4;;
49582;SDS011;36329;48.816;44.624;2023-03-23T07:05:15;17.3;;;8.5;;
49582;SDS011;36329;48.816;44.624;2023-03-23T07:08:18;18.5;;;8.2;;
49582;SDS011;36329;48.816;44.624;2023-03-23T07:11:20;18.3;;;7.9;;
49582;SDS011;36329;48.816;44.624;2023-03-23T07:14:23;15.2;;;7.6;;
49582;SDS011;36329;48.816;44.624;2023-03-23T07:17:25;17.5;;;8.4;;
49582;SDS011;36329;48.816;44.624;2023-03-23T07:20:27;12.7;;;7.7;;
49582;SDS011;36329;48.816;44.624;2023-03-23T07:23:30;17.9;;;8;;
49582;SDS011;36329;48.816;44.624;2023-03-23T07:26:32;18.2;;;8.4;;
49582;SDS011;36329;48.816;44.624;2023-03-23T07:29:35;20.3;;;8.8;;
49582;SDS011;36329;48.816;44.624;2023-03-23T07:32:37;18.2;;;8.3;;
49582;SDS011;36329;48.816;44.624;2023-03-23T07:35:38;12.8;;;7.4;;
49582;SDS011;36329;48.816;44.624;2023-03-23T07:38:40;16.9;;;7.6;;
49582;SDS011;36329;48.816;44.624;2023-03-23T07:41:43;18.2;;;8.5;;
49582;SDS011;36329;48.816;44.624;2023-03-23T07:44:45;14;;;7.2;;
49582;SDS011;36329;48.816;44.624;2023-03-23T07:47:47;12;;;7.4;;
49582;SDS011;36329;48.816;44.624;2023-03-23T07:50:49;14.2;;;6.8;;
49582;SDS011;36329;48.816;44.624;2023-03-23T07:53:51;10.2;;;6.6;;
49582;SDS011;36329;48.816;44.624;2023-03-23T07:56:53;15.8;;;6.6;;
49582;SDS011;36329;48.816;44.624;2023-03-23T07:59:56;15.1;;;6.8;;
49582;SDS011;36329;48.816;44.624;2023-03-23T08:02:58;13.9;;;7.1;;
49582;SDS011;36329;48.816;44.624;2023-03-23T08:06:01;11.7;;;6.6;;
49582;SDS011;36329;48.816;44.624;2023-03-23T08:09:03;12.4;;;6.9;;
49582;SDS011;36329;48.816;44.624;2023-03-23T08:12:05;19.1;;;7.1;;
49582;SDS011;36329;48.816;44.624;2023-03-23T08:15:08;12.9;;;6.4;;
49582;SDS011;36329;48.816;44.624;2023-03-23T08:18:13;14.6;;;7;;
49582;SDS011;36329;48.816;44.624;2023-03-23T08:21:15;19.9;;;7.8;;
49582;SDS011;36329;48.816;44.624;2023-03-23T08:24:17;12.8;;;6.6;;
49582;SDS011;36329;48.816;44.624;2023-03-23T08:27:19;12.2;;;6.2;;
49582;SDS011;36329;48.816;44.624;2023-03-23T08:30:22;15.4;;;6.8;;
49582;SDS011;36329;48.816;44.624;2023-03-23T08:33:24;13.1;;;6.4;;
49582;SDS011;36329;48.816;44.624;2023-03-23T08:36:26;14.6;;;6.2;;
49582;SDS011;36329;48.816;44.624;2023-03-23T08:39:28;15.9;;;7;;
49582;SDS011;36329;48.816;44.624;2023-03-23T08:42:31;14.4;;;6.4;;
49582;SDS011;36329;48.816;44.624;2023-03-23T08:45:33;13;;;6.8;;
49582;SDS011;36329;48.816;44.624;2023-03-23T08:48:35;14.4;;;6.5;;
49582;SDS011;36329;48.816;44.624;2023-03-23T08:51:38;16.4;;;6.5;;
49582;SDS011;36329;48.816;44.624;2023-03-23T08:54:40;14;;;5.8;;
49582;SDS011;36329;48.816;44.624;2023-03-23T08:57:43;14.4;;;6.7;;
49582;SDS011;36329;48.816;44.624;2023-03-23T09:00:45;15.1;;;7.2;;
49582;SDS011;36329;48.816;44.624;2023-03-23T09:03:47;11.6;;;5.9;;
49582;SDS011;36329;48.816;44.624;2023-03-23T09:06:49;14.5;;;6;;
49582;SDS011;36329;48.816;44.624;2023-03-23T09:09:51;13.4;;;5.9;;
49582;SDS011;36329;48.816;44.624;2023-03-23T09:12:54;14.4;;;6;;
49582;SDS011;36329;48.816;44.624;2023-03-23T09:15:56;14.1;;;5.7;;
49582;SDS011;36329;48.816;44.624;2023-03-23T09:18:58;13.7;;;5.9;;
49582;SDS011;36329;48.816;44.624;2023-03-23T09:22:01;13;;;6;;
49582;SDS011;36329;48.816;44.624;2023-03-23T09:25:04;13.1;;;5.9;;
49582;SDS011;36329;48.816;44.624;2023-03-23T09:28:07;13;;;5.5;;
49582;SDS011;36329;48.816;44.624;2023-03-23T09:31:09;10.5;;;5.1;;
49582;SDS011;36329;48.816;44.624;2023-03-23T09:34:11;9.2;;;5.1;;
49582;SDS011;36329;48.816;44.624;2023-03-23T09:37:13;12;;;5.7;;
49582;SDS011;36329;48.816;44.624;2023-03-23T09:40:16;13.4;;;5.2;;
49582;SDS011;36329;48.816;44.624;2023-03-23T09:43:28;10.4;;;5.4;;
49582;SDS011;36329;48.816;44.624;2023-03-23T09:46:42;14.9;;;5.1;;
49582;SDS011;36329;48.816;44.624;2023-03-23T09:49:51;10.5;;;5;;
49582;SDS011;36329;48.816;44.624;2023-03-23T09:52:59;11.5;;;4.7;;
49582;SDS011;36329;48.816;44.624;2023-03-23T09:56:09;15.4;;;5.1;;
49582;SDS011;36329;48.816;44.624;2023-03-23T09:59:18;11.9;;;4.9;;
49582;SDS011;36329;48.816;44.624;2023-03-23T10:02:27;14.3;;;5.2;;
49582;SDS011;36329;48.816;44.624;2023-03-23T10:05:35;9.7;;;5.2;;
49582;SDS011;36329;48.816;44.624;2023-03-23T10:08:43;13.2;;;5.1;;
49582;SDS011;36329;48.816;44.624;2023-03-23T10:11:51;15.2;;;5.6;;
49582;SDS011;36329;48.816;44.624;2023-03-23T10:15:02;15.8;;;5.3;;
49582;SDS011;36329;48.816;44.624;2023-03-23T10:18:13;15.8;;;5.6;;
49582;SDS011;36329;48.816;44.624;2023-03-23T10:21:21;11.5;;;4.9;;
49582;SDS011;36329;48.816;44.624;2023-03-23T10:24:26;19.2;;;6.9;;
49582;SDS011;36329;48.816;44.624;2023-03-23T10:27:38;17.4;;;6.5;;
49582;SDS011;36329;48.816;44.624;2023-03-23T10:30:48;18.5;;;6.2;;
49582;SDS011;36329;48.816;44.624;2023-03-23T10:33:54;24.1;;;6.4;;
49582;SDS011;36329;48.816;44.624;2023-03-23T10:37:02;29;;;6.5;;
49582;SDS011;36329;48.816;44.624;2023-03-23T10:40:12;17.3;;;5.9;;
49582;SDS011;36329;48.816;44.624;2023-03-23T10:43:17;19.8;;;5.9;;
49582;SDS011;36329;48.816;44.624;2023-03-23T10:46:22;17;;;5.9;;
49582;SDS011;36329;48.816;44.624;2023-03-23T10:49:32;14.1;;;5;;
49582;SDS011;36329;48.816;44.624;2023-03-23T10:52:37;23.7;;;6;;
49582;SDS011;36329;48.816;44.624;2023-03-23T10:55:40;16.6;;;6.1;;
49582;SDS011;36329;48.816;44.624;2023-03-23T10:58:43;14.9;;;5.1;;
49582;SDS011;36329;48.816;44.624;2023-03-23T11:01:47;28.3;;;5.8;;
49582;SDS011;36329;48.816;44.624;2023-03-23T11:04:56;12.9;;;6;;
49582;SDS011;36329;48.816;44.624;2023-03-23T11:08:01;13.6;;;5.5;;
49582;SDS011;36329;48.816;44.624;2023-03-23T11:11:08;11.6;;;5.2;;
49582;SDS011;36329;48.816;44.624;2023-03-23T11:14:14;10.6;;;5.2;;
49582;SDS011;36329;48.816;44.624;2023-03-23T11:17:20;11.5;;;5.5;;
49582;SDS011;36329;48.816;44.624;2023-03-23T11:20:23;8.4;;;4.7;;
49582;SDS011;36329;48.816;44.624;2023-03-23T11:23:27;14.1;;;5.2;;
49582;SDS011;36329;48.816;44.624;2023-03-23T11:26:31;10;;;5.3;;
49582;SDS011;36329;48.816;44.624;2023-03-23T11:29:36;15.3;;;5.7;;
49582;SDS011;36329;48.816;44.624;2023-03-23T11:32:50;12.8;;;5.4;;
49582;SDS011;36329;48.816;44.624;2023-03-23T11:35:53;12.3;;;5.4;;
49582;SDS011;36329;48.816;44.624;2023-03-23T11:38:56;14.1;;;5.7;;
49582;SDS011;36329;48.816;44.624;2023-03-23T11:41:59;13.8;;;5.4;;
49582;SDS011;36329;48.816;44.624;2023-03-23T11:45:12;11.2;;;5.2;;
49582;SDS011;36329;48.816;44.624;2023-03-23T11:48:19;11.7;;;5.4;;
49582;SDS011;36329;48.816;44.624;2023-03-23T11:51:30;10.7;;;5.6;;
49582;SDS011;36329;48.816;44.624;2023-03-23T11:54:40;11.2;;;4.7;;
49582;SDS011;36329;48.816;44.624;2023-03-23T11:57:50;15.4;;;5.9;;
49582;SDS011;36329;48.816;44.624;2023-03-23T12:00:55;20;;;6.5;;
49582;SDS011;36329;48.816;44.624;2023-03-23T12:04:06;15.8;;;5.8;;
49582;SDS011;36329;48.816;44.624;2023-03-23T12:07:24;16.5;;;6.3;;
49582;SDS011;36329;48.816;44.624;2023-03-23T12:10:34;16.9;;;7;;
49582;SDS011;36329;48.816;44.624;2023-03-23T12:13:45;15;;;7.2;;
49582;SDS011;36329;48.816;44.624;2023-03-23T12:16:57;19.9;;;7.4;;
49582;SDS011;36329;48.816;44.624;2023-03-23T12:20:11;15.8;;;7.7;;
49582;SDS011;36329;48.816;44.624;2023-03-23T12:23:22;19.5;;;8.3;;
49582;SDS011;36329;48.816;44.624;2023-03-23T12:26:26;22.8;;;8.4;;
49582;SDS011;36329;48.816;44.624;2023-03-23T12:29:37;18.8;;;8.2;;
49582;SDS011;36329;48.816;44.624;2023-03-23T12:32:51;18.5;;;7.3;;
49582;SDS011;36329;48.816;44.624;2023-03-23T12:36:04;17.1;;;7;;
49582;SDS011;36329;48.816;44.624;2023-03-23T12:42:52;19.5;;;8;;
49582;SDS011;36329;48.816;44.624;2023-03-23T12:46:02;15.6;;;7.6;;
49582;SDS011;36329;48.816;44.624;2023-03-23T12:49:12;17.6;;;7.2;;
49582;SDS011;36329;48.816;44.624;2023-03-23T12:52:22;13.7;;;6.6;;
49582;SDS011;36329;48.816;44.624;2023-03-23T12:55:29;13.6;;;6.4;;
49582;SDS011;36329;48.816;44.624;2023-03-23T12:58:36;13.7;;;6.2;;
49582;SDS011;36329;48.816;44.624;2023-03-23T13:01:43;16.4;;;6.2;;
49582;SDS011;36329;48.816;44.624;2023-03-23T13:04:50;12.8;;;6.1;;
49582;SDS011;36329;48.816;44.624;2023-03-23T13:07:55;12.7;;;6;;
49582;SDS011;36329;48.816;44.624;2023-03-23T13:11:03;16.6;;;6.1;;
49582;SDS011;36329;48.816;44.624;2023-03-23T13:14:15;17;;;6.1;;
49582;SDS011;36329;48.816;44.624;2023-03-23T13:17:26;14.9;;;6.3;;
49582;SDS011;36329;48.816;44.624;2023-03-23T13:20:36;13.7;;;6.6;;
49582;SDS011;36329;48.816;44.624;2023-03-23T13:23:44;14.7;;;7.2;;
49582;SDS011;36329;48.816;44.624;2023-03-23T13:26:49;14.4;;;6.6;;
49582;SDS011;36329;48.816;44.624;2023-03-23T13:29:52;16.5;;;7.3;;
49582;SDS011;36329;48.816;44.624;2023-03-23T13:33:01;15.6;;;8.3;;
49582;SDS011;36329;48.816;44.624;2023-03-23T13:36:08;16.4;;;8.6;;
49582;SDS011;36329;48.816;44.624;2023-03-23T13:39:18;16.3;;;7.8;;
49582;SDS011;36329;48.816;44.624;2023-03-23T13:42:23;16.9;;;8;;
49582;SDS011;36329;48.816;44.624;2023-03-23T13:45:36;17.9;;;8.2;;
49582;SDS011;36329;48.816;44.624;2023-03-23T13:48:47;21.7;;;8.3;;
49582;SDS011;36329;48.816;44.624;2023-03-23T13:51:57;20.1;;;8.6;;
49582;SDS011;36329;48.816;44.624;2023-03-23T13:58:23;22.4;;;10.1;;
49582;SDS011;36329;48.816;44.624;2023-03-23T14:01:31;18.9;;;9.5;;
49582;SDS011;36329;48.816;44.624;2023-03-23T14:04:37;26.4;;;9.9;;
49582;SDS011;36329;48.816;44.624;2023-03-23T14:07:52;18.3;;;8.8;;
49582;SDS011;36329;48.816;44.624;2023-03-23T14:10:56;24.9;;;10.3;;
49582;SDS011;36329;48.816;44.624;2023-03-23T14:14:01;21.2;;;9.4;;
49582;SDS011;36329;48.816;44.624;2023-03-23T14:17:06;20.5;;;8.9;;
49582;SDS011;36329;48.816;44.624;2023-03-23T14:20:16;18.3;;;8.5;;
49582;SDS011;36329;48.816;44.624;2023-03-23T14:23:25;23.6;;;8.6;;
49582;SDS011;36329;48.816;44.624;2023-03-23T14:26:27;17.2;;;7.9;;
49582;SDS011;36329;48.816;44.624;2023-03-23T14:29:30;20.5;;;7.6;;
49582;SDS011;36329;48.816;44.624;2023-03-23T14:32:33;19;;;8.1;;
49582;SDS011;36329;48.816;44.624;2023-03-23T14:35:37;21.5;;;7.8;;
49582;SDS011;36329;48.816;44.624;2023-03-23T14:38:43;23.6;;;8.3;;
49582;SDS011;36329;48.816;44.624;2023-03-23T14:41:45;22;;;9;;
49582;SDS011;36329;48.816;44.624;2023-03-23T14:44:48;18.6;;;8.6;;
49582;SDS011;36329;48.816;44.624;2023-03-23T14:47:53;24.6;;;8.5;;
49582;SDS011;36329;48.816;44.624;2023-03-23T14:50:59;20.5;;;8.4;;
49582;SDS011;36329;48.816;44.624;2023-03-23T14:54:07;18.5;;;8.4;;
49582;SDS011;36329;48.816;44.624;2023-03-23T14:57:12;25.7;;;8.7;;
49582;SDS011;36329;48.816;44.624;2023-03-23T15:00:17;20.8;;;8.5;;
49582;SDS011;36329;48.816;44.624;2023-03-23T15:03:21;25;;;8.4;;
49582;SDS011;36329;48.816;44.624;2023-03-23T15:06:25;25.5;;;9.7;;
49582;SDS011;36329;48.816;44.624;2023-03-23T15:09:31;25.8;;;9.5;;
49582;SDS011;36329;48.816;44.624;2023-03-23T15:12:33;30.5;;;10.1;;
49582;SDS011;36329;48.816;44.624;2023-03-23T15:15:36;30.8;;;9.9;;
49582;SDS011;36329;48.816;44.624;2023-03-23T15:18:39;27.6;;;10.1;;
49582;SDS011;36329;48.816;44.624;2023-03-23T15:21:49;25.5;;;10;;
49582;SDS011;36329;48.816;44.624;2023-03-23T15:24:53;23.2;;;9.4;;
49582;SDS011;36329;48.816;44.624;2023-03-23T15:28:09;25.2;;;8.7;;
49582;SDS011;36329;48.816;44.624;2023-03-23T15:31:18;18.2;;;9.1;;
49582;SDS011;36329;48.816;44.624;2023-03-23T15:34:29;22.9;;;9.8;;
49582;SDS011;36329;48.816;44.624;2023-03-23T15:37:34;28.9;;;15.6;;
49582;SDS011;36329;48.816;44.624;2023-03-23T15:40:40;26.3;;;13.2;;
49582;SDS011;36329;48.816;44.624;2023-03-23T15:43:48;21;;;11.1;;
49582;SDS011;36329;48.816;44.624;2023-03-23T15:46:55;29.1;;;12.4;;
49582;SDS011;36329;48.816;44.624;2023-03-23T15:50:09;21;;;9.1;;
49582;SDS011;36329;48.816;44.624;2023-03-23T15:53:19;23.2;;;10.1;;
49582;SDS011;36329;48.816;44.624;2023-03-23T15:56:25;24.9;;;9.8;;
49582;SDS011;36329;48.816;44.624;2023-03-23T15:59:27;23.3;;;9.4;;
49582;SDS011;36329;48.816;44.624;2023-03-23T16:02:29;19.4;;;9.6;;
49582;SDS011;36329;48.816;44.624;2023-03-23T16:05:31;20.8;;;8.6;;
49582;SDS011;36329;48.816;44.624;2023-03-23T16:08:34;31.3;;;11;;
49582;SDS011;36329;48.816;44.624;2023-03-23T16:11:36;19.1;;;9.4;;
49582;SDS011;36329;48.816;44.624;2023-03-23T16:14:39;26.8;;;10.5;;
49582;SDS011;36329;48.816;44.624;2023-03-23T16:17:41;27.7;;;12.5;;
49582;SDS011;36329;48.816;44.624;2023-03-23T16:20:44;34.7;;;15.5;;
49582;SDS011;36329;48.816;44.624;2023-03-23T16:23:46;23.5;;;12.4;;
49582;SDS011;36329;48.816;44.624;2023-03-23T16:26:48;27.7;;;12;;
49582;SDS011;36329;48.816;44.624;2023-03-23T16:29:50;20.4;;;10.7;;
49582;SDS011;36329;48.816;44.624;2023-03-23T16:32:52;31.4;;;14.2;;
49582;SDS011;36329;48.816;44.624;2023-03-23T16:35:55;32.1;;;16.1;;
49582;SDS011;36329;48.816;44.624;2023-03-23T16:38:57;44.2;;;16.5;;
49582;SDS011;36329;48.816;44.624;2023-03-23T16:41:59;41.2;;;21.6;;
49582;SDS011;36329;48.816;44.624;2023-03-23T16:45:02;38.9;;;19.4;;
49582;SDS011;36329;48.816;44.624;2023-03-23T16:48:05;43.7;;;20.5;;
49582;SDS011;36329;48.816;44.624;2023-03-23T16:51:07;33.2;;;18.4;;
49582;SDS011;36329;48.816;44.624;2023-03-23T16:54:09;28.4;;;13.8;;
49582;SDS011;36329;48.816;44.624;2023-03-23T16:57:12;34.3;;;16.2;;
49582;SDS011;36329;48.816;44.624;2023-03-23T17:00:15;28.5;;;13.5;;
49582;SDS011;36329;48.816;44.624;2023-03-23T17:03:19;22.5;;;9.8;;
49582;SDS011;36329;48.816;44.624;2023-03-23T17:06:22;21.7;;;8.4;;
49582;SDS011;36329;48.816;44.624;2023-03-23T17:09:24;16.6;;;7.4;;
49582;SDS011;36329;48.816;44.624;2023-03-23T17:12:27;19.6;;;8.7;;
49582;SDS011;36329;48.816;44.624;2023-03-23T17:15:29;19.8;;;7.7;;
49582;SDS011;36329;48.816;44.624;2023-03-23T17:18:31;15.8;;;8.7;;
49582;SDS011;36329;48.816;44.624;2023-03-23T17:21:34;14;;;6.8;;
49582;SDS011;36329;48.816;44.624;2023-03-23T17:24:35;28.1;;;8.2;;
49582;SDS011;36329;48.816;44.624;2023-03-23T17:27:37;24.2;;;7.1;;
49582;SDS011;36329;48.816;44.624;2023-03-23T17:30:42;16.5;;;6.4;;
49582;SDS011;36329;48.816;44.624;2023-03-23T17:33:44;15.7;;;6.2;;
49582;SDS011;36329;48.816;44.624;2023-03-23T17:36:47;16.4;;;6.7;;
49582;SDS011;36329;48.816;44.624;2023-03-23T17:39:49;12.9;;;5.8;;
49582;SDS011;36329;48.816;44.624;2023-03-23T17:42:51;12.1;;;5.6;;
49582;SDS011;36329;48.816;44.624;2023-03-23T17:45:54;13.3;;;5.2;;
49582;SDS011;36329;48.816;44.624;2023-03-23T17:48:57;16.8;;;5.6;;
49582;SDS011;36329;48.816;44.624;2023-03-23T17:51:59;16;;;5.4;;
49582;SDS011;36329;48.816;44.624;2023-03-23T17:55:01;14.4;;;5.2;;
49582;SDS011;36329;48.816;44.624;2023-03-23T17:58:04;10.5;;;5.2;;
49582;SDS011;36329;48.816;44.624;2023-03-23T18:01:07;12.8;;;5.1;;
49582;SDS011;36329;48.816;44.624;2023-03-23T18:04:08;10.8;;;4.8;;
49582;SDS011;36329;48.816;44.624;2023-03-23T18:07:11;12.3;;;4.9;;
49582;SDS011;36329;48.816;44.624;2023-03-23T18:10:13;9.7;;;5;;
49582;SDS011;36329;48.816;44.624;2023-03-23T18:13:15;14.9;;;5.2;;
49582;SDS011;36329;48.816;44.624;2023-03-23T18:16:17;10;;;5.1;;
49582;SDS011;36329;48.816;44.624;2023-03-23T18:19:19;11.4;;;4.6;;
49582;SDS011;36329;48.816;44.624;2023-03-23T18:22:21;10.8;;;5.6;;
49582;SDS011;36329;48.816;44.624;2023-03-23T18:25:24;10.5;;;4.8;;
49582;SDS011;36329;48.816;44.624;2023-03-23T18:28:26;11;;;5.2;;
49582;SDS011;36329;48.816;44.624;2023-03-23T18:31:28;11;;;5;;
49582;SDS011;36329;48.816;44.624;2023-03-23T18:34:30;9.9;;;4.5;;
49582;SDS011;36329;48.816;44.624;2023-03-23T18:37:32;9.5;;;4.6;;
49582;SDS011;36329;48.816;44.624;2023-03-23T18:40:35;10.8;;;4.8;;
49582;SDS011;36329;48.816;44.624;2023-03-23T18:43:37;12.8;;;4.8;;
49582;SDS011;36329;48.816;44.624;2023-03-23T18:46:39;10.4;;;4.3;;
49582;SDS011;36329;48.816;44.624;2023-03-23T18:49:41;7.9;;;4.6;;
49582;SDS011;36329;48.816;44.624;2023-03-23T18:52:45;13.9;;;4.3;;